sensor_id;sensor_type;location;lat;lon;timestamp;temperature;humidity
13856;DHT22;6998;53.608;9.958;2022-08-19T00:01:15;20.40;99.90
13856;DHT22;6998;53.608;9.958;2022-08-19T00:03:42;20.40;99.90
13856;DHT22;6998;53.608;9.958;2022-08-19T00:06:09;20.50;99.90
13856;DHT22;6998;53.608;9.958;2022-08-19T00:08:36;20.50;99.90
13856;DHT22;6998;53.608;9.958;2022-08-19T00:11:03;20.50;99.90
13856;DHT22;6998;53.608;9.958;2022-08-19T00:13:32;20.50;99.90
13856;DHT22;6998;53.608;9.958;2022-08-19T00:15:59;20.40;99.90
13856;DHT22;6998;53.608;9.958;2022-08-19T00:18:26;20.40;99.90
13856;DHT22;6998;53.608;9.958;2022-08-19T00:20:53;20.40;99.90
13856;DHT22;6998;53.608;9.958;2022-08-19T00:23:19;20.40;99.90
13856;DHT22;6998;53.608;9.958;2022-08-19T00:25:46;20.40;99.90
13856;DHT22;6998;53.608;9.958;2022-08-19T00:28:13;20.40;99.90
13856;DHT22;6998;53.608;9.958;2022-08-19T00:30:41;20.30;99.90
13856;DHT22;6998;53.608;9.958;2022-08-19T00:33:08;20.30;99.90
13856;DHT22;6998;53.608;9.958;2022-08-19T00:35:35;20.30;99.90
13856;DHT22;6998;53.608;9.958;2022-08-19T00:38:04;20.30;99.90
13856;DHT22;6998;53.608;9.958;2022-08-19T00:40:31;20.30;99.90
13856;DHT22;6998;53.608;9.958;2022-08-19T00:42:59;20.30;99.90
13856;DHT22;6998;53.608;9.958;2022-08-19T00:45:28;20.40;99.90
13856;DHT22;6998;53.608;9.958;2022-08-19T00:47:58;20.40;99.90
13856;DHT22;6998;53.608;9.958;2022-08-19T00:50:29;20.40;99.90
13856;DHT22;6998;53.608;9.958;2022-08-19T00:52:56;20.30;99.90
13856;DHT22;6998;53.608;9.958;2022-08-19T00:55:25;20.40;99.90
13856;DHT22;6998;53.608;9.958;2022-08-19T00:57:58;20.40;99.90
13856;DHT22;6998;53.608;9.958;2022-08-19T01:00:27;20.40;99.90
13856;DHT22;6998;53.608;9.958;2022-08-19T01:02:54;20.40;99.90
13856;DHT22;6998;53.608;9.958;2022-08-19T01:05:25;20.40;99.90
13856;DHT22;6998;53.608;9.958;2022-08-19T01:07:54;20.40;99.90
13856;DHT22;6998;53.608;9.958;2022-08-19T01:10:25;20.40;99.90
13856;DHT22;6998;53.608;9.958;2022-08-19T01:12:55;20.30;99.90
13856;DHT22;6998;53.608;9.958;2022-08-19T01:15:25;20.40;99.90
13856;DHT22;6998;53.608;9.958;2022-08-19T01:17:53;20.30;99.90
13856;DHT22;6998;53.608;9.958;2022-08-19T01:20:23;20.30;99.90
13856;DHT22;6998;53.608;9.958;2022-08-19T01:22:54;20.30;99.90
13856;DHT22;6998;53.608;9.958;2022-08-19T01:25:24;20.30;99.90
13856;DHT22;6998;53.608;9.958;2022-08-19T01:27:52;20.20;99.90
13856;DHT22;6998;53.608;9.958;2022-08-19T01:30:23;20.20;99.90
13856;DHT22;6998;53.608;9.958;2022-08-19T01:32:51;20.20;99.90
13856;DHT22;6998;53.608;9.958;2022-08-19T01:35:19;20.20;99.90
13856;DHT22;6998;53.608;9.958;2022-08-19T01:37:53;20.20;99.90
13856;DHT22;6998;53.608;9.958;2022-08-19T01:40:21;20.10;99.90
13856;DHT22;6998;53.608;9.958;2022-08-19T01:42:49;20.10;99.90
13856;DHT22;6998;53.608;9.958;2022-08-19T01:45:16;20.10;99.90
13856;DHT22;6998;53.608;9.958;2022-08-19T01:47:43;20.10;99.90
13856;DHT22;6998;53.608;9.958;2022-08-19T01:50:11;20.10;99.90
13856;DHT22;6998;53.608;9.958;2022-08-19T01:52:40;20.10;99.90
13856;DHT22;6998;53.608;9.958;2022-08-19T01:55:13;20.10;99.90
13856;DHT22;6998;53.608;9.958;2022-08-19T01:57:44;20.10;99.90
13856;DHT22;6998;53.608;9.958;2022-08-19T02:00:15;20.10;99.90
13856;DHT22;6998;53.608;9.958;2022-08-19T02:02:42;20.20;99.90
13856;DHT22;6998;53.608;9.958;2022-08-19T02:05:09;20.10;99.90
13856;DHT22;6998;53.608;9.958;2022-08-19T02:07:37;20.10;99.90
13856;DHT22;6998;53.608;9.958;2022-08-19T02:10:06;20.00;99.90
13856;DHT22;6998;53.608;9.958;2022-08-19T02:12:34;20.00;99.90
13856;DHT22;6998;53.608;9.958;2022-08-19T02:15:03;20.00;99.90
13856;DHT22;6998;53.608;9.958;2022-08-19T02:17:30;20.00;99.90
13856;DHT22;6998;53.608;9.958;2022-08-19T02:19:57;20.10;99.90
13856;DHT22;6998;53.608;9.958;2022-08-19T02:22:24;20.10;99.90
13856;DHT22;6998;53.608;9.958;2022-08-19T02:24:52;20.00;99.90
13856;DHT22;6998;53.608;9.958;2022-08-19T02:27:19;20.00;99.90
13856;DHT22;6998;53.608;9.958;2022-08-19T02:29:48;20.00;99.90
13856;DHT22;6998;53.608;9.958;2022-08-19T02:32:16;20.00;99.90
13856;DHT22;6998;53.608;9.958;2022-08-19T02:34:44;20.00;99.90
13856;DHT22;6998;53.608;9.958;2022-08-19T02:37:11;20.00;99.90
13856;DHT22;6998;53.608;9.958;2022-08-19T02:39:58;19.90;99.90
13856;DHT22;6998;53.608;9.958;2022-08-19T02:42:24;19.80;99.90
13856;DHT22;6998;53.608;9.958;2022-08-19T02:44:55;19.80;99.90
13856;DHT22;6998;53.608;9.958;2022-08-19T02:47:22;19.80;99.90
13856;DHT22;6998;53.608;9.958;2022-08-19T02:49:48;19.80;99.90
13856;DHT22;6998;53.608;9.958;2022-08-19T02:52:15;19.90;99.90
13856;DHT22;6998;53.608;9.958;2022-08-19T02:54:42;19.90;99.90
13856;DHT22;6998;53.608;9.958;2022-08-19T02:57:09;19.90;99.90
13856;DHT22;6998;53.608;9.958;2022-08-19T02:59:36;19.90;99.90
13856;DHT22;6998;53.608;9.958;2022-08-19T03:02:04;19.80;99.90
13856;DHT22;6998;53.608;9.958;2022-08-19T03:04:31;19.80;99.90
13856;DHT22;6998;53.608;9.958;2022-08-19T03:06:57;19.80;99.90
13856;DHT22;6998;53.608;9.958;2022-08-19T03:09:24;20.00;99.90
13856;DHT22;6998;53.608;9.958;2022-08-19T03:11:51;19.90;99.90
13856;DHT22;6998;53.608;9.958;2022-08-19T03:14:17;20.00;99.90
13856;DHT22;6998;53.608;9.958;2022-08-19T03:16:46;19.90;99.90
13856;DHT22;6998;53.608;9.958;2022-08-19T03:19:16;19.90;99.90
13856;DHT22;6998;53.608;9.958;2022-08-19T03:21:43;19.90;99.90
13856;DHT22;6998;53.608;9.958;2022-08-19T03:24:11;19.90;99.90
13856;DHT22;6998;53.608;9.958;2022-08-19T03:26:39;19.80;99.90
13856;DHT22;6998;53.608;9.958;2022-08-19T03:29:07;19.80;99.90
13856;DHT22;6998;53.608;9.958;2022-08-19T03:31:34;19.90;99.90
13856;DHT22;6998;53.608;9.958;2022-08-19T03:34:01;19.90;99.90
13856;DHT22;6998;53.608;9.958;2022-08-19T03:36:29;19.80;99.90
13856;DHT22;6998;53.608;9.958;2022-08-19T03:38:57;19.80;99.90
13856;DHT22;6998;53.608;9.958;2022-08-19T03:41:26;19.80;99.90
13856;DHT22;6998;53.608;9.958;2022-08-19T03:43:54;19.80;99.90
13856;DHT22;6998;53.608;9.958;2022-08-19T03:46:24;19.80;99.90
13856;DHT22;6998;53.608;9.958;2022-08-19T03:48:53;19.80;99.90
13856;DHT22;6998;53.608;9.958;2022-08-19T03:51:24;19.80;99.90
13856;DHT22;6998;53.608;9.958;2022-08-19T03:53:54;19.70;99.90
13856;DHT22;6998;53.608;9.958;2022-08-19T03:56:21;19.70;99.90
13856;DHT22;6998;53.608;9.958;2022-08-19T03:58:48;19.80;99.90
13856;DHT22;6998;53.608;9.958;2022-08-19T04:01:18;19.70;99.90
13856;DHT22;6998;53.608;9.958;2022-08-19T04:03:46;19.60;99.90
13856;DHT22;6998;53.608;9.958;2022-08-19T04:06:15;19.60;99.90
13856;DHT22;6998;53.608;9.958;2022-08-19T04:08:44;19.60;99.90
13856;DHT22;6998;53.608;9.958;2022-08-19T04:11:14;19.60;99.90
13856;DHT22;6998;53.608;9.958;2022-08-19T04:13:41;19.60;99.90
13856;DHT22;6998;53.608;9.958;2022-08-19T04:16:08;19.50;99.90
13856;DHT22;6998;53.608;9.958;2022-08-19T04:18:36;19.50;99.90
13856;DHT22;6998;53.608;9.958;2022-08-19T04:21:04;19.60;99.90
13856;DHT22;6998;53.608;9.958;2022-08-19T04:23:32;19.60;99.90
13856;DHT22;6998;53.608;9.958;2022-08-19T04:25:58;19.70;99.90
13856;DHT22;6998;53.608;9.958;2022-08-19T04:28:27;19.60;99.90
13856;DHT22;6998;53.608;9.958;2022-08-19T04:30:55;19.70;99.90
13856;DHT22;6998;53.608;9.958;2022-08-19T04:33:24;19.70;99.90
13856;DHT22;6998;53.608;9.958;2022-08-19T04:35:52;19.80;99.90
13856;DHT22;6998;53.608;9.958;2022-08-19T04:38:21;19.80;99.90
13856;DHT22;6998;53.608;9.958;2022-08-19T04:40:50;19.80;99.90
13856;DHT22;6998;53.608;9.958;2022-08-19T04:43:37;19.70;99.90
13856;DHT22;6998;53.608;9.958;2022-08-19T04:46:05;19.80;99.90
13856;DHT22;6998;53.608;9.958;2022-08-19T04:48:33;19.80;99.90
13856;DHT22;6998;53.608;9.958;2022-08-19T04:51:06;19.90;99.90
13856;DHT22;6998;53.608;9.958;2022-08-19T04:53:35;19.90;99.90
13856;DHT22;6998;53.608;9.958;2022-08-19T04:56:05;19.90;99.90
13856;DHT22;6998;53.608;9.958;2022-08-19T04:58:33;19.90;99.90
13856;DHT22;6998;53.608;9.958;2022-08-19T05:01:01;19.80;99.90
13856;DHT22;6998;53.608;9.958;2022-08-19T05:03:28;19.80;99.90
13856;DHT22;6998;53.608;9.958;2022-08-19T05:05:59;19.70;99.90
13856;DHT22;6998;53.608;9.958;2022-08-19T05:08:30;19.70;99.90
13856;DHT22;6998;53.608;9.958;2022-08-19T05:10:56;19.70;99.90
13856;DHT22;6998;53.608;9.958;2022-08-19T05:13:23;19.60;99.90
13856;DHT22;6998;53.608;9.958;2022-08-19T05:15:54;19.70;99.90
13856;DHT22;6998;53.608;9.958;2022-08-19T05:18:22;19.60;99.90
13856;DHT22;6998;53.608;9.958;2022-08-19T05:21:07;19.60;99.90
13856;DHT22;6998;53.608;9.958;2022-08-19T05:23:52;19.60;99.90
13856;DHT22;6998;53.608;9.958;2022-08-19T05:26:19;19.60;99.90
13856;DHT22;6998;53.608;9.958;2022-08-19T05:28:45;19.70;99.90
13856;DHT22;6998;53.608;9.958;2022-08-19T05:31:12;19.60;99.90
13856;DHT22;6998;53.608;9.958;2022-08-19T05:33:40;19.60;99.90
13856;DHT22;6998;53.608;9.958;2022-08-19T05:36:07;19.70;99.90
13856;DHT22;6998;53.608;9.958;2022-08-19T05:38:34;19.70;99.90
13856;DHT22;6998;53.608;9.958;2022-08-19T05:41:06;19.70;99.90
13856;DHT22;6998;53.608;9.958;2022-08-19T05:43:33;19.70;99.90
13856;DHT22;6998;53.608;9.958;2022-08-19T05:46:00;19.70;99.90
13856;DHT22;6998;53.608;9.958;2022-08-19T05:48:27;19.70;99.90
13856;DHT22;6998;53.608;9.958;2022-08-19T05:50:55;19.70;99.90
13856;DHT22;6998;53.608;9.958;2022-08-19T05:53:39;19.70;99.90
13856;DHT22;6998;53.608;9.958;2022-08-19T05:56:08;19.70;99.90
13856;DHT22;6998;53.608;9.958;2022-08-19T05:58:39;19.80;99.90
13856;DHT22;6998;53.608;9.958;2022-08-19T06:01:10;19.70;99.90
13856;DHT22;6998;53.608;9.958;2022-08-19T06:03:37;19.80;99.90
13856;DHT22;6998;53.608;9.958;2022-08-19T06:06:09;19.70;99.90
13856;DHT22;6998;53.608;9.958;2022-08-19T06:08:37;19.70;99.90
13856;DHT22;6998;53.608;9.958;2022-08-19T06:11:18;19.70;99.90
13856;DHT22;6998;53.608;9.958;2022-08-19T06:13:46;19.80;99.90
13856;DHT22;6998;53.608;9.958;2022-08-19T06:16:16;19.80;99.90
13856;DHT22;6998;53.608;9.958;2022-08-19T06:18:48;19.90;99.90
13856;DHT22;6998;53.608;9.958;2022-08-19T06:21:18;19.90;99.90
13856;DHT22;6998;53.608;9.958;2022-08-19T06:23:45;19.90;99.90
13856;DHT22;6998;53.608;9.958;2022-08-19T06:26:12;20.00;99.90
13856;DHT22;6998;53.608;9.958;2022-08-19T06:28:39;20.00;99.90
13856;DHT22;6998;53.608;9.958;2022-08-19T06:31:08;20.10;99.90
13856;DHT22;6998;53.608;9.958;2022-08-19T06:33:35;20.20;99.90
13856;DHT22;6998;53.608;9.958;2022-08-19T06:36:03;20.20;99.90
13856;DHT22;6998;53.608;9.958;2022-08-19T06:38:31;20.30;99.90
13856;DHT22;6998;53.608;9.958;2022-08-19T06:41:01;20.30;99.90
13856;DHT22;6998;53.608;9.958;2022-08-19T06:43:27;20.20;99.90
13856;DHT22;6998;53.608;9.958;2022-08-19T06:45:54;20.20;99.90
13856;DHT22;6998;53.608;9.958;2022-08-19T06:48:21;20.30;99.90
13856;DHT22;6998;53.608;9.958;2022-08-19T06:50:48;20.30;99.90
13856;DHT22;6998;53.608;9.958;2022-08-19T06:53:18;20.30;99.90
13856;DHT22;6998;53.608;9.958;2022-08-19T06:55:47;20.30;99.90
13856;DHT22;6998;53.608;9.958;2022-08-19T06:58:21;20.20;99.90
13856;DHT22;6998;53.608;9.958;2022-08-19T07:00:47;20.20;99.90
13856;DHT22;6998;53.608;9.958;2022-08-19T07:03:16;20.30;99.90
13856;DHT22;6998;53.608;9.958;2022-08-19T07:05:43;20.20;99.90
13856;DHT22;6998;53.608;9.958;2022-08-19T07:08:10;20.20;99.90
13856;DHT22;6998;53.608;9.958;2022-08-19T07:10:36;20.20;99.90
13856;DHT22;6998;53.608;9.958;2022-08-19T07:13:04;20.30;99.90
13856;DHT22;6998;53.608;9.958;2022-08-19T07:15:33;20.20;99.90
13856;DHT22;6998;53.608;9.958;2022-08-19T07:18:02;20.20;99.90
13856;DHT22;6998;53.608;9.958;2022-08-19T07:20:28;20.20;99.90
13856;DHT22;6998;53.608;9.958;2022-08-19T07:22:55;20.20;99.90
13856;DHT22;6998;53.608;9.958;2022-08-19T07:25:22;20.30;99.90
13856;DHT22;6998;53.608;9.958;2022-08-19T07:27:49;20.20;99.90
13856;DHT22;6998;53.608;9.958;2022-08-19T07:30:17;20.20;99.90
13856;DHT22;6998;53.608;9.958;2022-08-19T07:32:44;20.30;99.90
13856;DHT22;6998;53.608;9.958;2022-08-19T07:35:10;20.30;99.90
13856;DHT22;6998;53.608;9.958;2022-08-19T07:37:37;20.40;99.90
13856;DHT22;6998;53.608;9.958;2022-08-19T07:40:10;20.50;99.90
13856;DHT22;6998;53.608;9.958;2022-08-19T07:42:36;20.60;99.90
13856;DHT22;6998;53.608;9.958;2022-08-19T07:45:04;20.60;99.90
13856;DHT22;6998;53.608;9.958;2022-08-19T07:47:32;20.60;99.90
13856;DHT22;6998;53.608;9.958;2022-08-19T07:49:59;20.70;99.90
13856;DHT22;6998;53.608;9.958;2022-08-19T07:52:26;20.70;99.90
13856;DHT22;6998;53.608;9.958;2022-08-19T07:54:53;20.60;99.90
13856;DHT22;6998;53.608;9.958;2022-08-19T07:57:20;20.60;99.90
13856;DHT22;6998;53.608;9.958;2022-08-19T07:59:46;20.70;99.90
13856;DHT22;6998;53.608;9.958;2022-08-19T08:02:13;20.70;99.90
13856;DHT22;6998;53.608;9.958;2022-08-19T08:04:41;20.80;99.90
13856;DHT22;6998;53.608;9.958;2022-08-19T08:07:26;20.80;99.90
13856;DHT22;6998;53.608;9.958;2022-08-19T08:10:10;20.70;99.90
13856;DHT22;6998;53.608;9.958;2022-08-19T08:12:39;20.80;99.90
13856;DHT22;6998;53.608;9.958;2022-08-19T08:15:10;20.80;99.90
13856;DHT22;6998;53.608;9.958;2022-08-19T08:17:37;20.80;99.90
13856;DHT22;6998;53.608;9.958;2022-08-19T08:20:07;20.80;99.90
13856;DHT22;6998;53.608;9.958;2022-08-19T08:22:33;20.90;99.90
13856;DHT22;6998;53.608;9.958;2022-08-19T08:25:20;20.80;99.90
13856;DHT22;6998;53.608;9.958;2022-08-19T08:27:49;20.90;99.90
13856;DHT22;6998;53.608;9.958;2022-08-19T08:30:18;20.90;99.90
13856;DHT22;6998;53.608;9.958;2022-08-19T08:32:45;20.90;99.90
13856;DHT22;6998;53.608;9.958;2022-08-19T08:35:15;20.90;99.90
13856;DHT22;6998;53.608;9.958;2022-08-19T08:37:42;20.90;99.90
13856;DHT22;6998;53.608;9.958;2022-08-19T08:40:18;20.90;99.90
13856;DHT22;6998;53.608;9.958;2022-08-19T08:42:50;20.90;99.90
13856;DHT22;6998;53.608;9.958;2022-08-19T08:45:20;20.90;99.90
13856;DHT22;6998;53.608;9.958;2022-08-19T08:47:50;21.00;99.90
13856;DHT22;6998;53.608;9.958;2022-08-19T08:50:23;21.00;99.90
13856;DHT22;6998;53.608;9.958;2022-08-19T08:52:55;21.10;99.90
13856;DHT22;6998;53.608;9.958;2022-08-19T08:55:24;21.10;99.90
13856;DHT22;6998;53.608;9.958;2022-08-19T08:57:55;21.20;99.90
13856;DHT22;6998;53.608;9.958;2022-08-19T09:00:26;21.40;99.90
13856;DHT22;6998;53.608;9.958;2022-08-19T09:03:14;21.50;99.90
13856;DHT22;6998;53.608;9.958;2022-08-19T09:05:51;21.60;99.90
13856;DHT22;6998;53.608;9.958;2022-08-19T09:08:30;21.70;99.90
13856;DHT22;6998;53.608;9.958;2022-08-19T09:11:03;21.70;99.90
13856;DHT22;6998;53.608;9.958;2022-08-19T09:13:36;21.60;99.90
13856;DHT22;6998;53.608;9.958;2022-08-19T09:16:07;21.60;99.90
13856;DHT22;6998;53.608;9.958;2022-08-19T09:18:41;21.70;99.90
13856;DHT22;6998;53.608;9.958;2022-08-19T09:21:10;21.90;99.90
13856;DHT22;6998;53.608;9.958;2022-08-19T09:23:37;21.90;99.90
13856;DHT22;6998;53.608;9.958;2022-08-19T09:26:07;22.00;99.90
13856;DHT22;6998;53.608;9.958;2022-08-19T09:28:35;22.10;99.90
13856;DHT22;6998;53.608;9.958;2022-08-19T09:31:02;22.10;99.90
13856;DHT22;6998;53.608;9.958;2022-08-19T09:33:29;22.10;99.90
13856;DHT22;6998;53.608;9.958;2022-08-19T09:36:03;22.10;99.90
13856;DHT22;6998;53.608;9.958;2022-08-19T09:38:31;22.10;99.90
13856;DHT22;6998;53.608;9.958;2022-08-19T09:41:02;22.10;99.90
13856;DHT22;6998;53.608;9.958;2022-08-19T09:43:30;22.10;99.90
13856;DHT22;6998;53.608;9.958;2022-08-19T09:45:56;22.00;99.90
13856;DHT22;6998;53.608;9.958;2022-08-19T09:48:23;22.00;99.90
13856;DHT22;6998;53.608;9.958;2022-08-19T09:50:50;22.00;99.90
13856;DHT22;6998;53.608;9.958;2022-08-19T09:53:17;22.10;99.90
13856;DHT22;6998;53.608;9.958;2022-08-19T09:55:45;22.10;99.90
13856;DHT22;6998;53.608;9.958;2022-08-19T09:58:12;22.10;99.90
13856;DHT22;6998;53.608;9.958;2022-08-19T10:00:39;22.20;99.90
13856;DHT22;6998;53.608;9.958;2022-08-19T10:03:06;22.20;99.90
13856;DHT22;6998;53.608;9.958;2022-08-19T10:05:33;22.20;99.90
13856;DHT22;6998;53.608;9.958;2022-08-19T10:08:16;22.20;99.90
13856;DHT22;6998;53.608;9.958;2022-08-19T10:10:44;22.20;99.90
13856;DHT22;6998;53.608;9.958;2022-08-19T10:13:13;22.20;99.90
13856;DHT22;6998;53.608;9.958;2022-08-19T10:15:40;22.20;99.90
13856;DHT22;6998;53.608;9.958;2022-08-19T10:18:07;22.20;99.90
13856;DHT22;6998;53.608;9.958;2022-08-19T10:23:15;21.90;99.90
13856;DHT22;6998;53.608;9.958;2022-08-19T10:25:42;21.90;99.90
13856;DHT22;6998;53.608;9.958;2022-08-19T10:28:09;21.90;99.90
13856;DHT22;6998;53.608;9.958;2022-08-19T10:30:37;22.00;99.90
13856;DHT22;6998;53.608;9.958;2022-08-19T10:33:05;22.10;99.90
13856;DHT22;6998;53.608;9.958;2022-08-19T10:35:32;22.20;99.90
13856;DHT22;6998;53.608;9.958;2022-08-19T10:37:59;22.20;99.90
13856;DHT22;6998;53.608;9.958;2022-08-19T10:40:28;22.20;99.90
13856;DHT22;6998;53.608;9.958;2022-08-19T10:42:55;22.10;99.90
13856;DHT22;6998;53.608;9.958;2022-08-19T10:45:22;22.00;99.90
13856;DHT22;6998;53.608;9.958;2022-08-19T10:47:52;22.10;99.90
13856;DHT22;6998;53.608;9.958;2022-08-19T10:50:19;22.00;99.90
13856;DHT22;6998;53.608;9.958;2022-08-19T10:53:05;22.00;99.90
13856;DHT22;6998;53.608;9.958;2022-08-19T10:55:35;21.90;99.90
13856;DHT22;6998;53.608;9.958;2022-08-19T10:58:21;22.00;99.90
13856;DHT22;6998;53.608;9.958;2022-08-19T11:00:51;22.00;99.90
13856;DHT22;6998;53.608;9.958;2022-08-19T11:03:19;22.10;99.90
13856;DHT22;6998;53.608;9.958;2022-08-19T11:05:46;22.20;99.90
13856;DHT22;6998;53.608;9.958;2022-08-19T11:08:14;22.40;99.90
13856;DHT22;6998;53.608;9.958;2022-08-19T11:10:42;22.50;99.90
13856;DHT22;6998;53.608;9.958;2022-08-19T11:13:09;22.80;99.90
13856;DHT22;6998;53.608;9.958;2022-08-19T11:15:36;23.00;99.90
13856;DHT22;6998;53.608;9.958;2022-08-19T11:18:03;23.30;99.90
13856;DHT22;6998;53.608;9.958;2022-08-19T11:20:31;23.50;99.90
13856;DHT22;6998;53.608;9.958;2022-08-19T11:22:58;23.80;99.90
13856;DHT22;6998;53.608;9.958;2022-08-19T11:25:24;24.00;99.90
13856;DHT22;6998;53.608;9.958;2022-08-19T11:27:52;24.20;99.90
13856;DHT22;6998;53.608;9.958;2022-08-19T11:30:19;24.30;99.90
13856;DHT22;6998;53.608;9.958;2022-08-19T11:32:46;24.40;99.90
13856;DHT22;6998;53.608;9.958;2022-08-19T11:35:13;24.50;99.90
13856;DHT22;6998;53.608;9.958;2022-08-19T11:37:40;24.60;99.90
13856;DHT22;6998;53.608;9.958;2022-08-19T11:40:08;24.70;99.90
13856;DHT22;6998;53.608;9.958;2022-08-19T11:42:34;24.70;99.90
13856;DHT22;6998;53.608;9.958;2022-08-19T11:45:20;24.60;99.90
13856;DHT22;6998;53.608;9.958;2022-08-19T11:47:47;24.30;99.90
13856;DHT22;6998;53.608;9.958;2022-08-19T11:50:15;24.20;99.90
13856;DHT22;6998;53.608;9.958;2022-08-19T11:52:42;24.30;99.90
13856;DHT22;6998;53.608;9.958;2022-08-19T11:55:10;24.50;99.90
13856;DHT22;6998;53.608;9.958;2022-08-19T11:57:37;24.60;99.90
13856;DHT22;6998;53.608;9.958;2022-08-19T12:00:05;24.80;99.90
13856;DHT22;6998;53.608;9.958;2022-08-19T12:02:34;24.70;99.90
13856;DHT22;6998;53.608;9.958;2022-08-19T12:05:00;24.40;99.90
13856;DHT22;6998;53.608;9.958;2022-08-19T12:07:28;24.20;99.90
13856;DHT22;6998;53.608;9.958;2022-08-19T12:09:58;24.20;99.90
13856;DHT22;6998;53.608;9.958;2022-08-19T12:12:25;24.10;99.90
13856;DHT22;6998;53.608;9.958;2022-08-19T12:14:52;24.10;99.90
13856;DHT22;6998;53.608;9.958;2022-08-19T12:17:22;24.20;99.90
13856;DHT22;6998;53.608;9.958;2022-08-19T12:19:50;24.30;99.90
13856;DHT22;6998;53.608;9.958;2022-08-19T12:22:17;24.30;99.90
13856;DHT22;6998;53.608;9.958;2022-08-19T12:24:43;24.60;99.90
13856;DHT22;6998;53.608;9.958;2022-08-19T12:27:10;24.70;99.90
13856;DHT22;6998;53.608;9.958;2022-08-19T12:29:37;25.00;99.90
13856;DHT22;6998;53.608;9.958;2022-08-19T12:32:04;25.30;99.90
13856;DHT22;6998;53.608;9.958;2022-08-19T12:34:31;25.60;99.90
13856;DHT22;6998;53.608;9.958;2022-08-19T12:37:02;25.80;99.90
13856;DHT22;6998;53.608;9.958;2022-08-19T12:39:30;25.90;99.90
13856;DHT22;6998;53.608;9.958;2022-08-19T12:41:57;26.00;99.90
13856;DHT22;6998;53.608;9.958;2022-08-19T12:44:24;26.10;99.90
13856;DHT22;6998;53.608;9.958;2022-08-19T12:46:51;26.30;99.90
13856;DHT22;6998;53.608;9.958;2022-08-19T12:49:17;26.50;99.90
13856;DHT22;6998;53.608;9.958;2022-08-19T12:51:44;26.60;99.90
13856;DHT22;6998;53.608;9.958;2022-08-19T12:54:13;26.70;99.90
13856;DHT22;6998;53.608;9.958;2022-08-19T12:56:40;27.00;99.90
13856;DHT22;6998;53.608;9.958;2022-08-19T12:59:09;27.20;99.90
13856;DHT22;6998;53.608;9.958;2022-08-19T13:01:36;27.30;99.90
13856;DHT22;6998;53.608;9.958;2022-08-19T13:04:04;27.40;99.90
13856;DHT22;6998;53.608;9.958;2022-08-19T13:06:30;27.20;99.90
13856;DHT22;6998;53.608;9.958;2022-08-19T13:08:57;27.20;99.90
13856;DHT22;6998;53.608;9.958;2022-08-19T13:11:25;27.30;99.90
13856;DHT22;6998;53.608;9.958;2022-08-19T13:13:53;27.20;99.90
13856;DHT22;6998;53.608;9.958;2022-08-19T13:16:20;27.00;99.90
13856;DHT22;6998;53.608;9.958;2022-08-19T13:18:47;26.90;99.90
13856;DHT22;6998;53.608;9.958;2022-08-19T13:21:14;26.90;99.90
13856;DHT22;6998;53.608;9.958;2022-08-19T13:23:42;26.90;99.90
13856;DHT22;6998;53.608;9.958;2022-08-19T13:26:10;26.90;99.90
13856;DHT22;6998;53.608;9.958;2022-08-19T13:28:39;26.90;99.90
13856;DHT22;6998;53.608;9.958;2022-08-19T13:31:25;27.00;99.90
13856;DHT22;6998;53.608;9.958;2022-08-19T13:34:10;27.00;99.90
13856;DHT22;6998;53.608;9.958;2022-08-19T13:36:38;27.00;99.90
13856;DHT22;6998;53.608;9.958;2022-08-19T13:39:06;26.90;99.90
13856;DHT22;6998;53.608;9.958;2022-08-19T13:41:34;26.70;99.90
13856;DHT22;6998;53.608;9.958;2022-08-19T13:46:38;26.50;99.90
13856;DHT22;6998;53.608;9.958;2022-08-19T13:49:05;26.40;99.90
13856;DHT22;6998;53.608;9.958;2022-08-19T13:51:32;26.40;99.90
13856;DHT22;6998;53.608;9.958;2022-08-19T13:54:04;26.30;99.90
13856;DHT22;6998;53.608;9.958;2022-08-19T13:56:35;26.20;99.90
13856;DHT22;6998;53.608;9.958;2022-08-19T13:59:03;26.10;99.90
13856;DHT22;6998;53.608;9.958;2022-08-19T14:01:33;26.00;99.90
13856;DHT22;6998;53.608;9.958;2022-08-19T14:04:02;26.00;99.90
13856;DHT22;6998;53.608;9.958;2022-08-19T14:06:28;25.90;99.90
13856;DHT22;6998;53.608;9.958;2022-08-19T14:08:55;25.90;99.90
13856;DHT22;6998;53.608;9.958;2022-08-19T14:11:22;25.80;99.90
13856;DHT22;6998;53.608;9.958;2022-08-19T14:13:49;25.80;99.90
13856;DHT22;6998;53.608;9.958;2022-08-19T14:16:16;25.90;99.90
13856;DHT22;6998;53.608;9.958;2022-08-19T14:18:43;25.90;99.90
13856;DHT22;6998;53.608;9.958;2022-08-19T14:21:17;25.80;99.90
13856;DHT22;6998;53.608;9.958;2022-08-19T14:23:45;25.80;99.90
13856;DHT22;6998;53.608;9.958;2022-08-19T14:26:15;25.90;99.90
13856;DHT22;6998;53.608;9.958;2022-08-19T14:28:42;26.00;99.90
13856;DHT22;6998;53.608;9.958;2022-08-19T14:31:09;26.00;99.90
13856;DHT22;6998;53.608;9.958;2022-08-19T14:33:36;26.10;99.90
13856;DHT22;6998;53.608;9.958;2022-08-19T14:36:04;25.90;99.90
13856;DHT22;6998;53.608;9.958;2022-08-19T14:38:33;26.00;99.90
13856;DHT22;6998;53.608;9.958;2022-08-19T14:41:08;26.00;99.90
13856;DHT22;6998;53.608;9.958;2022-08-19T14:43:51;25.80;99.90
13856;DHT22;6998;53.608;9.958;2022-08-19T14:46:21;25.80;99.90
13856;DHT22;6998;53.608;9.958;2022-08-19T14:48:49;25.90;99.90
13856;DHT22;6998;53.608;9.958;2022-08-19T14:51:16;25.80;99.90
13856;DHT22;6998;53.608;9.958;2022-08-19T14:53:45;25.90;99.90
13856;DHT22;6998;53.608;9.958;2022-08-19T14:56:16;25.90;99.90
13856;DHT22;6998;53.608;9.958;2022-08-19T14:58:44;26.00;99.90
13856;DHT22;6998;53.608;9.958;2022-08-19T15:01:11;25.90;99.90
13856;DHT22;6998;53.608;9.958;2022-08-19T15:03:39;25.80;99.90
13856;DHT22;6998;53.608;9.958;2022-08-19T15:06:07;25.60;99.90
13856;DHT22;6998;53.608;9.958;2022-08-19T15:08:36;25.60;99.90
13856;DHT22;6998;53.608;9.958;2022-08-19T15:11:08;25.50;99.90
13856;DHT22;6998;53.608;9.958;2022-08-19T15:13:36;25.40;99.90
13856;DHT22;6998;53.608;9.958;2022-08-19T15:16:03;25.60;99.90
13856;DHT22;6998;53.608;9.958;2022-08-19T15:18:29;25.60;99.90
13856;DHT22;6998;53.608;9.958;2022-08-19T15:20:56;25.70;99.90
13856;DHT22;6998;53.608;9.958;2022-08-19T15:23:23;25.90;99.90
13856;DHT22;6998;53.608;9.958;2022-08-19T15:25:50;26.00;99.90
13856;DHT22;6998;53.608;9.958;2022-08-19T15:28:22;26.20;99.90
13856;DHT22;6998;53.608;9.958;2022-08-19T15:30:49;26.10;99.90
13856;DHT22;6998;53.608;9.958;2022-08-19T15:33:17;26.30;99.90
13856;DHT22;6998;53.608;9.958;2022-08-19T15:35:46;26.30;99.90
13856;DHT22;6998;53.608;9.958;2022-08-19T15:38:16;26.40;99.90
13856;DHT22;6998;53.608;9.958;2022-08-19T15:40:44;26.40;99.90
13856;DHT22;6998;53.608;9.958;2022-08-19T15:43:13;26.40;99.90
13856;DHT22;6998;53.608;9.958;2022-08-19T15:45:41;26.50;99.90
13856;DHT22;6998;53.608;9.958;2022-08-19T15:48:08;26.60;99.90
13856;DHT22;6998;53.608;9.958;2022-08-19T15:50:34;26.70;99.90
13856;DHT22;6998;53.608;9.958;2022-08-19T15:53:04;26.90;99.90
13856;DHT22;6998;53.608;9.958;2022-08-19T15:55:34;27.00;99.90
13856;DHT22;6998;53.608;9.958;2022-08-19T15:58:02;26.80;99.90
13856;DHT22;6998;53.608;9.958;2022-08-19T16:00:47;26.70;99.90